sensor_id;sensor_type;location;lat;lon;timestamp;P1;durP1;ratioP1;P2;durP2;ratioP2
25511;SDS011;13414;44.534;18.700;2022-07-21T01:39:47;7.50;;;4.25;;
25511;SDS011;13414;44.534;18.700;2022-07-21T01:42:32;9.07;;;4.28;;
25511;SDS011;13414;44.534;18.700;2022-07-21T01:44:59;8.77;;;4.50;;
25511;SDS011;13414;44.534;18.700;2022-07-21T01:47:26;7.53;;;3.83;;
25511;SDS011;13414;44.534;18.700;2022-07-21T01:49:54;5.70;;;4.15;;
25511;SDS011;13414;44.534;18.700;2022-07-21T01:52:21;5.75;;;4.20;;
25511;SDS011;13414;44.534;18.700;2022-07-21T01:54:50;5.93;;;3.90;;
25511;SDS011;13414;44.534;18.700;2022-07-21T01:57:17;7.95;;;4.28;;
25511;SDS011;13414;44.534;18.700;2022-07-21T01:59:45;7.82;;;4.32;;
25511;SDS011;13414;44.534;18.700;2022-07-21T02:02:12;7.43;;;4.28;;
25511;SDS011;13414;44.534;18.700;2022-07-21T02:04:39;6.70;;;4.05;;
25511;SDS011;13414;44.534;18.700;2022-07-21T02:07:06;7.30;;;3.90;;
25511;SDS011;13414;44.534;18.700;2022-07-21T02:09:34;5.80;;;3.72;;
25511;SDS011;13414;44.534;18.700;2022-07-21T02:12:03;6.13;;;4.00;;
25511;SDS011;13414;44.534;18.700;2022-07-21T02:14:31;10.77;;;4.95;;
25511;SDS011;13414;44.534;18.700;2022-07-21T02:16:58;8.40;;;4.70;;
25511;SDS011;13414;44.534;18.700;2022-07-21T02:19:25;9.35;;;5.00;;
25511;SDS011;13414;44.534;18.700;2022-07-21T02:21:53;7.93;;;3.90;;
25511;SDS011;13414;44.534;18.700;2022-07-21T02:24:20;5.60;;;4.47;;
25511;SDS011;13414;44.534;18.700;2022-07-21T02:26:47;7.90;;;4.50;;
25511;SDS011;13414;44.534;18.700;2022-07-21T02:29:16;8.65;;;4.47;;
25511;SDS011;13414;44.534;18.700;2022-07-21T02:31:43;7.38;;;4.20;;
25511;SDS011;13414;44.534;18.700;2022-07-21T02:34:10;11.43;;;4.93;;
25511;SDS011;13414;44.534;18.700;2022-07-21T02:36:38;6.43;;;4.22;;
25511;SDS011;13414;44.534;18.700;2022-07-21T02:39:05;8.07;;;4.82;;
25511;SDS011;13414;44.534;18.700;2022-07-21T02:41:32;6.55;;;4.60;;
25511;SDS011;13414;44.534;18.700;2022-07-21T02:44:00;6.53;;;4.65;;
25511;SDS011;13414;44.534;18.700;2022-07-21T02:46:28;5.72;;;4.22;;
25511;SDS011;13414;44.534;18.700;2022-07-21T02:48:55;9.63;;;4.88;;
25511;SDS011;13414;44.534;18.700;2022-07-21T02:51:27;7.45;;;4.97;;
25511;SDS011;13414;44.534;18.700;2022-07-21T02:53:54;7.53;;;5.00;;
25511;SDS011;13414;44.534;18.700;2022-07-21T02:56:22;7.45;;;4.50;;
25511;SDS011;13414;44.534;18.700;2022-07-21T02:58:49;8.65;;;4.70;;
25511;SDS011;13414;44.534;18.700;2022-07-21T03:01:16;7.70;;;5.05;;
25511;SDS011;13414;44.534;18.700;2022-07-21T03:03:47;7.88;;;4.75;;
25511;SDS011;13414;44.534;18.700;2022-07-21T03:06:15;8.02;;;4.85;;
25511;SDS011;13414;44.534;18.700;2022-07-21T03:08:42;6.95;;;4.28;;
25511;SDS011;13414;44.534;18.700;2022-07-21T03:11:09;6.15;;;4.38;;
25511;SDS011;13414;44.534;18.700;2022-07-21T03:13:36;8.00;;;5.00;;
25511;SDS011;13414;44.534;18.700;2022-07-21T03:16:04;7.40;;;4.47;;
25511;SDS011;13414;44.534;18.700;2022-07-21T03:18:31;10.13;;;4.65;;
25511;SDS011;13414;44.534;18.700;2022-07-21T03:21:01;6.95;;;4.40;;
25511;SDS011;13414;44.534;18.700;2022-07-21T03:23:29;9.13;;;4.82;;
25511;SDS011;13414;44.534;18.700;2022-07-21T03:25:56;6.57;;;5.00;;
25511;SDS011;13414;44.534;18.700;2022-07-21T03:28:23;8.23;;;4.93;;
25511;SDS011;13414;44.534;18.700;2022-07-21T03:30:51;10.02;;;5.10;;
25511;SDS011;13414;44.534;18.700;2022-07-21T03:33:18;8.20;;;4.75;;
25511;SDS011;13414;44.534;18.700;2022-07-21T03:35:45;10.73;;;5.50;;
25511;SDS011;13414;44.534;18.700;2022-07-21T03:38:14;9.88;;;5.88;;
25511;SDS011;13414;44.534;18.700;2022-07-21T03:40:41;10.40;;;6.50;;
25511;SDS011;13414;44.534;18.700;2022-07-21T03:43:08;13.95;;;7.28;;
25511;SDS011;13414;44.534;18.700;2022-07-21T03:45:36;9.93;;;7.35;;
25511;SDS011;13414;44.534;18.700;2022-07-21T03:48:04;9.90;;;6.10;;
25511;SDS011;13414;44.534;18.700;2022-07-21T03:50:32;10.23;;;5.82;;
25511;SDS011;13414;44.534;18.700;2022-07-21T03:53:00;8.00;;;5.40;;
25511;SDS011;13414;44.534;18.700;2022-07-21T03:55:29;9.32;;;5.25;;
25511;SDS011;13414;44.534;18.700;2022-07-21T03:57:58;11.32;;;5.07;;
25511;SDS011;13414;44.534;18.700;2022-07-21T04:00:29;10.73;;;5.25;;
25511;SDS011;13414;44.534;18.700;2022-07-21T04:02:58;7.15;;;5.18;;
25511;SDS011;13414;44.534;18.700;2022-07-21T04:05:26;11.60;;;4.82;;
25511;SDS011;13414;44.534;18.700;2022-07-21T04:07:54;7.28;;;5.35;;
25511;SDS011;13414;44.534;18.700;2022-07-21T04:10:22;8.75;;;5.82;;
25511;SDS011;13414;44.534;18.700;2022-07-21T04:12:53;26.50;;;8.10;;
25511;SDS011;13414;44.534;18.700;2022-07-21T04:15:21;9.95;;;6.38;;
25511;SDS011;13414;44.534;18.700;2022-07-21T04:17:49;14.27;;;6.13;;
25511;SDS011;13414;44.534;18.700;2022-07-21T04:20:16;9.27;;;5.20;;
25511;SDS011;13414;44.534;18.700;2022-07-21T04:22:44;10.60;;;4.63;;
25511;SDS011;13414;44.534;18.700;2022-07-21T04:25:13;10.15;;;5.10;;
25511;SDS011;13414;44.534;18.700;2022-07-21T04:27:42;11.20;;;4.88;;
25511;SDS011;13414;44.534;18.700;2022-07-21T04:30:12;12.20;;;4.63;;
25511;SDS011;13414;44.534;18.700;2022-07-21T04:32:41;12.70;;;4.30;;
25511;SDS011;13414;44.534;18.700;2022-07-21T04:35:08;11.88;;;4.78;;
25511;SDS011;13414;44.534;18.700;2022-07-21T04:37:36;10.35;;;5.45;;
25511;SDS011;13414;44.534;18.700;2022-07-21T04:40:04;8.02;;;4.13;;
25511;SDS011;13414;44.534;18.700;2022-07-21T04:42:33;14.13;;;5.15;;
25511;SDS011;13414;44.534;18.700;2022-07-21T04:45:02;10.80;;;5.28;;
25511;SDS011;13414;44.534;18.700;2022-07-21T04:47:31;7.82;;;5.55;;
25511;SDS011;13414;44.534;18.700;2022-07-21T04:49:59;7.00;;;4.20;;
25511;SDS011;13414;44.534;18.700;2022-07-21T04:52:26;11.65;;;4.90;;
25511;SDS011;13414;44.534;18.700;2022-07-21T04:54:53;10.95;;;4.65;;
25511;SDS011;13414;44.534;18.700;2022-07-21T04:57:20;9.15;;;5.43;;
25511;SDS011;13414;44.534;18.700;2022-07-21T04:59:48;37.83;;;9.45;;
25511;SDS011;13414;44.534;18.700;2022-07-21T05:02:15;12.13;;;8.38;;
25511;SDS011;13414;44.534;18.700;2022-07-21T05:04:44;13.73;;;8.52;;
25511;SDS011;13414;44.534;18.700;2022-07-21T05:07:11;20.50;;;9.23;;
25511;SDS011;13414;44.534;18.700;2022-07-21T05:09:38;13.35;;;6.25;;
25511;SDS011;13414;44.534;18.700;2022-07-21T05:12:05;12.27;;;6.13;;
25511;SDS011;13414;44.534;18.700;2022-07-21T05:14:33;11.88;;;5.30;;
25511;SDS011;13414;44.534;18.700;2022-07-21T05:17:00;9.63;;;5.40;;
25511;SDS011;13414;44.534;18.700;2022-07-21T05:19:27;16.63;;;10.27;;
25511;SDS011;13414;44.534;18.700;2022-07-21T05:21:56;14.90;;;9.80;;
25511;SDS011;13414;44.534;18.700;2022-07-21T05:24:23;18.63;;;10.57;;
25511;SDS011;13414;44.534;18.700;2022-07-21T05:26:50;10.27;;;5.40;;
25511;SDS011;13414;44.534;18.700;2022-07-21T05:29:18;10.00;;;5.57;;
25511;SDS011;13414;44.534;18.700;2022-07-21T05:31:45;13.38;;;7.32;;
25511;SDS011;13414;44.534;18.700;2022-07-21T05:34:12;9.07;;;4.63;;
25511;SDS011;13414;44.534;18.700;2022-07-21T05:36:39;8.55;;;4.55;;
25511;SDS011;13414;44.534;18.700;2022-07-21T05:39:08;9.32;;;4.20;;
25511;SDS011;13414;44.534;18.700;2022-07-21T05:41:35;11.40;;;5.50;;
25511;SDS011;13414;44.534;18.700;2022-07-21T05:44:03;14.13;;;7.10;;
25511;SDS011;13414;44.534;18.700;2022-07-21T05:46:30;13.43;;;6.65;;
25511;SDS011;13414;44.534;18.700;2022-07-21T05:48:57;13.85;;;5.93;;
25511;SDS011;13414;44.534;18.700;2022-07-21T05:51:25;15.27;;;4.97;;
25511;SDS011;13414;44.534;18.700;2022-07-21T05:53:52;10.27;;;4.85;;
25511;SDS011;13414;44.534;18.700;2022-07-21T05:56:21;13.65;;;6.32;;
25511;SDS011;13414;44.534;18.700;2022-07-21T05:58:48;14.75;;;9.43;;
25511;SDS011;13414;44.534;18.700;2022-07-21T06:01:15;13.48;;;6.85;;
25511;SDS011;13414;44.534;18.700;2022-07-21T06:03:43;12.00;;;5.95;;
25511;SDS011;13414;44.534;18.700;2022-07-21T06:06:12;14.07;;;6.70;;
25511;SDS011;13414;44.534;18.700;2022-07-21T06:08:42;15.73;;;10.40;;
25511;SDS011;13414;44.534;18.700;2022-07-21T06:11:11;19.85;;;8.93;;
25511;SDS011;13414;44.534;18.700;2022-07-21T06:13:41;23.77;;;10.75;;
25511;SDS011;13414;44.534;18.700;2022-07-21T06:16:09;16.55;;;7.22;;
25511;SDS011;13414;44.534;18.700;2022-07-21T06:18:36;16.13;;;6.45;;
25511;SDS011;13414;44.534;18.700;2022-07-21T06:21:04;15.07;;;10.77;;
25511;SDS011;13414;44.534;18.700;2022-07-21T06:23:31;15.80;;;10.85;;
25511;SDS011;13414;44.534;18.700;2022-07-21T06:25:59;16.95;;;5.63;;
25511;SDS011;13414;44.534;18.700;2022-07-21T06:28:26;11.57;;;5.32;;
25511;SDS011;13414;44.534;18.700;2022-07-21T06:30:55;16.50;;;6.55;;
25511;SDS011;13414;44.534;18.700;2022-07-21T06:33:22;18.95;;;7.40;;
25511;SDS011;13414;44.534;18.700;2022-07-21T06:35:49;15.35;;;7.03;;
25511;SDS011;13414;44.534;18.700;2022-07-21T06:38:17;28.20;;;7.85;;
25511;SDS011;13414;44.534;18.700;2022-07-21T06:40:44;25.42;;;8.05;;
25511;SDS011;13414;44.534;18.700;2022-07-21T06:43:11;20.73;;;7.65;;
25511;SDS011;13414;44.534;18.700;2022-07-21T06:45:39;22.08;;;8.50;;
25511;SDS011;13414;44.534;18.700;2022-07-21T06:48:08;17.85;;;8.52;;
25511;SDS011;13414;44.534;18.700;2022-07-21T06:50:36;24.40;;;9.07;;
25511;SDS011;13414;44.534;18.700;2022-07-21T06:53:03;24.13;;;8.65;;
25511;SDS011;13414;44.534;18.700;2022-07-21T06:55:31;51.40;;;9.52;;
25511;SDS011;13414;44.534;18.700;2022-07-21T06:58:07;31.35;;;8.80;;
25511;SDS011;13414;44.534;18.700;2022-07-21T07:00:36;14.55;;;7.10;;
25511;SDS011;13414;44.534;18.700;2022-07-21T07:03:03;13.73;;;7.78;;
25511;SDS011;13414;44.534;18.700;2022-07-21T07:05:32;13.55;;;7.82;;
25511;SDS011;13414;44.534;18.700;2022-07-21T07:07:59;22.23;;;7.55;;
25511;SDS011;13414;44.534;18.700;2022-07-21T07:10:27;16.25;;;8.35;;
25511;SDS011;13414;44.534;18.700;2022-07-21T07:12:55;26.45;;;7.70;;
25511;SDS011;13414;44.534;18.700;2022-07-21T07:15:22;21.67;;;7.88;;
25511;SDS011;13414;44.534;18.700;2022-07-21T07:17:50;22.75;;;7.93;;
25511;SDS011;13414;44.534;18.700;2022-07-21T07:20:18;20.02;;;7.93;;
25511;SDS011;13414;44.534;18.700;2022-07-21T07:22:47;18.13;;;7.03;;
25511;SDS011;13414;44.534;18.700;2022-07-21T07:25:14;17.90;;;7.32;;
25511;SDS011;13414;44.534;18.700;2022-07-21T07:27:43;19.35;;;8.50;;
25511;SDS011;13414;44.534;18.700;2022-07-21T07:30:10;17.85;;;10.40;;
25511;SDS011;13414;44.534;18.700;2022-07-21T07:32:38;24.00;;;14.27;;
25511;SDS011;13414;44.534;18.700;2022-07-21T07:35:07;31.88;;;14.70;;
25511;SDS011;13414;44.534;18.700;2022-07-21T07:37:35;22.83;;;11.38;;
25511;SDS011;13414;44.534;18.700;2022-07-21T07:40:05;15.80;;;8.55;;
25511;SDS011;13414;44.534;18.700;2022-07-21T07:42:34;24.92;;;9.65;;
25511;SDS011;13414;44.534;18.700;2022-07-21T07:45:03;21.52;;;7.57;;
25511;SDS011;13414;44.534;18.700;2022-07-21T07:47:31;15.88;;;6.75;;
25511;SDS011;13414;44.534;18.700;2022-07-21T07:49:59;21.67;;;8.55;;
25511;SDS011;13414;44.534;18.700;2022-07-21T07:52:26;16.25;;;8.10;;
25511;SDS011;13414;44.534;18.700;2022-07-21T07:54:54;14.20;;;7.95;;
25511;SDS011;13414;44.534;18.700;2022-07-21T07:57:23;18.65;;;8.43;;
25511;SDS011;13414;44.534;18.700;2022-07-21T07:59:50;13.02;;;7.03;;
25511;SDS011;13414;44.534;18.700;2022-07-21T08:02:17;17.40;;;8.23;;
25511;SDS011;13414;44.534;18.700;2022-07-21T08:04:45;14.23;;;6.78;;
25511;SDS011;13414;44.534;18.700;2022-07-21T08:07:12;15.75;;;6.90;;
25511;SDS011;13414;44.534;18.700;2022-07-21T08:09:39;15.20;;;7.32;;
25511;SDS011;13414;44.534;18.700;2022-07-21T08:12:07;21.25;;;6.60;;
25511;SDS011;13414;44.534;18.700;2022-07-21T08:14:36;19.77;;;6.82;;
25511;SDS011;13414;44.534;18.700;2022-07-21T08:17:04;13.25;;;7.03;;
25511;SDS011;13414;44.534;18.700;2022-07-21T08:19:31;12.35;;;6.45;;
25511;SDS011;13414;44.534;18.700;2022-07-21T08:21:59;11.05;;;6.80;;
25511;SDS011;13414;44.534;18.700;2022-07-21T08:24:26;16.83;;;8.13;;
25511;SDS011;13414;44.534;18.700;2022-07-21T08:26:54;10.02;;;6.78;;
25511;SDS011;13414;44.534;18.700;2022-07-21T08:29:21;9.70;;;6.05;;
25511;SDS011;13414;44.534;18.700;2022-07-21T08:31:50;14.82;;;6.40;;
25511;SDS011;13414;44.534;18.700;2022-07-21T08:34:17;13.07;;;7.03;;
25511;SDS011;13414;44.534;18.700;2022-07-21T08:36:44;9.93;;;6.15;;
25511;SDS011;13414;44.534;18.700;2022-07-21T08:39:11;11.88;;;5.65;;
25511;SDS011;13414;44.534;18.700;2022-07-21T08:41:39;14.32;;;7.30;;
25511;SDS011;13414;44.534;18.700;2022-07-21T08:44:06;16.80;;;8.38;;
25511;SDS011;13414;44.534;18.700;2022-07-21T08:46:36;13.25;;;8.27;;
25511;SDS011;13414;44.534;18.700;2022-07-21T08:49:06;14.75;;;7.22;;
25511;SDS011;13414;44.534;18.700;2022-07-21T08:51:34;10.55;;;7.07;;
25511;SDS011;13414;44.534;18.700;2022-07-21T08:54:02;11.52;;;6.25;;
25511;SDS011;13414;44.534;18.700;2022-07-21T08:56:30;15.35;;;8.43;;
25511;SDS011;13414;44.534;18.700;2022-07-21T08:58:58;12.68;;;6.90;;
25511;SDS011;13414;44.534;18.700;2022-07-21T09:01:25;14.73;;;6.13;;
25511;SDS011;13414;44.534;18.700;2022-07-21T09:03:52;25.23;;;8.35;;
25511;SDS011;13414;44.534;18.700;2022-07-21T09:06:21;10.52;;;5.82;;
25511;SDS011;13414;44.534;18.700;2022-07-21T09:08:49;9.73;;;5.53;;
25511;SDS011;13414;44.534;18.700;2022-07-21T09:11:20;11.35;;;5.32;;
25511;SDS011;13414;44.534;18.700;2022-07-21T09:13:49;11.15;;;5.75;;
25511;SDS011;13414;44.534;18.700;2022-07-21T09:16:32;8.95;;;5.40;;
25511;SDS011;13414;44.534;18.700;2022-07-21T09:19:01;8.40;;;7.47;;
25511;SDS011;13414;44.534;18.700;2022-07-21T09:21:31;13.02;;;9.35;;
25511;SDS011;13414;44.534;18.700;2022-07-21T09:24:16;15.25;;;8.05;;
25511;SDS011;13414;44.534;18.700;2022-07-21T09:26:56;11.90;;;5.90;;
25511;SDS011;13414;44.534;18.700;2022-07-21T09:29:32;12.30;;;6.30;;
25511;SDS011;13414;44.534;18.700;2022-07-21T09:32:21;18.35;;;12.07;;
25511;SDS011;13414;44.534;18.700;2022-07-21T09:34:53;11.43;;;5.90;;
25511;SDS011;13414;44.534;18.700;2022-07-21T09:37:26;16.25;;;6.07;;
25511;SDS011;13414;44.534;18.700;2022-07-21T09:39:54;13.88;;;7.18;;
25511;SDS011;13414;44.534;18.700;2022-07-21T09:42:24;10.77;;;6.80;;
25511;SDS011;13414;44.534;18.700;2022-07-21T09:44:55;8.82;;;5.63;;
25511;SDS011;13414;44.534;18.700;2022-07-21T09:47:24;9.15;;;5.75;;
25511;SDS011;13414;44.534;18.700;2022-07-21T09:49:53;20.95;;;7.47;;
25511;SDS011;13414;44.534;18.700;2022-07-21T09:52:26;12.85;;;8.07;;
25511;SDS011;13414;44.534;18.700;2022-07-21T09:54:57;8.43;;;3.90;;
25511;SDS011;13414;44.534;18.700;2022-07-21T09:57:26;7.00;;;4.10;;
25511;SDS011;13414;44.534;18.700;2022-07-21T09:59:54;11.75;;;5.50;;
25511;SDS011;13414;44.534;18.700;2022-07-21T10:02:23;9.15;;;5.10;;
25511;SDS011;13414;44.534;18.700;2022-07-21T10:04:55;9.15;;;5.28;;
25511;SDS011;13414;44.534;18.700;2022-07-21T10:07:26;7.38;;;4.60;;
25511;SDS011;13414;44.534;18.700;2022-07-21T10:09:54;10.18;;;6.38;;
25511;SDS011;13414;44.534;18.700;2022-07-21T10:12:23;8.23;;;6.18;;
25511;SDS011;13414;44.534;18.700;2022-07-21T10:14:52;8.77;;;4.50;;
25511;SDS011;13414;44.534;18.700;2022-07-21T10:17:21;6.90;;;4.70;;
25511;SDS011;13414;44.534;18.700;2022-07-21T10:19:53;7.40;;;3.80;;
25511;SDS011;13414;44.534;18.700;2022-07-21T10:22:40;6.30;;;3.60;;
25511;SDS011;13414;44.534;18.700;2022-07-21T10:25:18;11.63;;;4.38;;
25511;SDS011;13414;44.534;18.700;2022-07-21T10:30:45;13.65;;;4.50;;
25511;SDS011;13414;44.534;18.700;2022-07-21T10:33:15;10.75;;;4.35;;
25511;SDS011;13414;44.534;18.700;2022-07-21T10:35:45;11.30;;;9.02;;
25511;SDS011;13414;44.534;18.700;2022-07-21T10:38:28;10.20;;;4.65;;
25511;SDS011;13414;44.534;18.700;2022-07-21T10:40:56;6.60;;;4.57;;
25511;SDS011;13414;44.534;18.700;2022-07-21T10:43:38;10.43;;;5.65;;
25511;SDS011;13414;44.534;18.700;2022-07-21T10:49:06;7.72;;;3.75;;
25511;SDS011;13414;44.534;18.700;2022-07-21T10:51:35;10.75;;;3.83;;
25511;SDS011;13414;44.534;18.700;2022-07-21T11:02:54;6.25;;;3.30;;
25511;SDS011;13414;44.534;18.700;2022-07-21T11:05:23;5.88;;;2.88;;
25511;SDS011;13414;44.534;18.700;2022-07-21T11:08:08;5.95;;;3.15;;
25511;SDS011;13414;44.534;18.700;2022-07-21T11:10:42;9.07;;;3.13;;
25511;SDS011;13414;44.534;18.700;2022-07-21T11:13:12;4.20;;;3.40;;
25511;SDS011;13414;44.534;18.700;2022-07-21T11:15:54;5.53;;;3.00;;
25511;SDS011;13414;44.534;18.700;2022-07-21T11:18:24;6.00;;;3.13;;
25511;SDS011;13414;44.534;18.700;2022-07-21T11:21:03;4.82;;;3.28;;
25511;SDS011;13414;44.534;18.700;2022-07-21T11:23:40;5.45;;;3.30;;
25511;SDS011;13414;44.534;18.700;2022-07-21T11:26:13;7.10;;;3.67;;
25511;SDS011;13414;44.534;18.700;2022-07-21T11:28:42;8.52;;;3.72;;
25511;SDS011;13414;44.534;18.700;2022-07-21T11:31:15;6.07;;;3.70;;
25511;SDS011;13414;44.534;18.700;2022-07-21T11:33:51;7.43;;;3.70;;
25511;SDS011;13414;44.534;18.700;2022-07-21T11:36:25;6.20;;;3.60;;
25511;SDS011;13414;44.534;18.700;2022-07-21T11:38:59;6.45;;;3.88;;
25511;SDS011;13414;44.534;18.700;2022-07-21T11:41:31;6.68;;;3.90;;
25511;SDS011;13414;44.534;18.700;2022-07-21T11:44:00;7.78;;;3.90;;
25511;SDS011;13414;44.534;18.700;2022-07-21T11:46:27;7.28;;;3.80;;
25511;SDS011;13414;44.534;18.700;2022-07-21T11:49:10;8.80;;;3.45;;
25511;SDS011;13414;44.534;18.700;2022-07-21T11:51:38;7.57;;;3.55;;
25511;SDS011;13414;44.534;18.700;2022-07-21T11:54:20;8.40;;;3.28;;
25511;SDS011;13414;44.534;18.700;2022-07-21T11:56:51;8.00;;;3.60;;
25511;SDS011;13414;44.534;18.700;2022-07-21T11:59:19;4.93;;;3.83;;
25511;SDS011;13414;44.534;18.700;2022-07-21T12:01:58;13.93;;;9.75;;
25511;SDS011;13414;44.534;18.700;2022-07-21T12:04:38;7.63;;;4.05;;
25511;SDS011;13414;44.534;18.700;2022-07-21T12:07:12;8.77;;;4.43;;
25511;SDS011;13414;44.534;18.700;2022-07-21T12:09:45;8.75;;;4.60;;
25511;SDS011;13414;44.534;18.700;2022-07-21T12:12:19;6.40;;;4.35;;
25511;SDS011;13414;44.534;18.700;2022-07-21T12:15:08;5.15;;;3.83;;
25511;SDS011;13414;44.534;18.700;2022-07-21T12:17:43;6.13;;;3.60;;
25511;SDS011;13414;44.534;18.700;2022-07-21T12:20:13;5.45;;;3.80;;
25511;SDS011;13414;44.534;18.700;2022-07-21T12:22:43;7.30;;;3.78;;
25511;SDS011;13414;44.534;18.700;2022-07-21T12:25:12;6.72;;;3.20;;
25511;SDS011;13414;44.534;18.700;2022-07-21T12:27:44;5.22;;;3.45;;
25511;SDS011;13414;44.534;18.700;2022-07-21T12:33:01;8.70;;;3.70;;
25511;SDS011;13414;44.534;18.700;2022-07-21T12:35:31;8.68;;;4.40;;
25511;SDS011;13414;44.534;18.700;2022-07-21T12:38:02;5.25;;;3.53;;
25511;SDS011;13414;44.534;18.700;2022-07-21T12:40:32;8.25;;;4.20;;
25511;SDS011;13414;44.534;18.700;2022-07-21T12:43:09;7.47;;;4.00;;
25511;SDS011;13414;44.534;18.700;2022-07-21T12:45:52;6.20;;;3.70;;
25511;SDS011;13414;44.534;18.700;2022-07-21T12:48:21;6.32;;;3.67;;
25511;SDS011;13414;44.534;18.700;2022-07-21T12:51:01;4.80;;;3.63;;
25511;SDS011;13414;44.534;18.700;2022-07-21T12:53:31;6.53;;;4.30;;
25511;SDS011;13414;44.534;18.700;2022-07-21T12:56:00;6.75;;;3.53;;
25511;SDS011;13414;44.534;18.700;2022-07-21T12:58:30;7.97;;;4.10;;
25511;SDS011;13414;44.534;18.700;2022-07-21T13:00:58;9.68;;;3.75;;
25511;SDS011;13414;44.534;18.700;2022-07-21T13:03:27;7.30;;;6.10;;
25511;SDS011;13414;44.534;18.700;2022-07-21T13:05:55;6.38;;;4.72;;
25511;SDS011;13414;44.534;18.700;2022-07-21T13:08:23;6.97;;;3.47;;
25511;SDS011;13414;44.534;18.700;2022-07-21T13:10:51;7.03;;;4.43;;
25511;SDS011;13414;44.534;18.700;2022-07-21T13:13:19;9.35;;;3.38;;
25511;SDS011;13414;44.534;18.700;2022-07-21T13:15:48;9.32;;;4.22;;
25511;SDS011;13414;44.534;18.700;2022-07-21T13:18:15;7.25;;;3.50;;
25511;SDS011;13414;44.534;18.700;2022-07-21T13:20:43;10.88;;;4.70;;
25511;SDS011;13414;44.534;18.700;2022-07-21T13:23:11;5.40;;;3.53;;
25511;SDS011;13414;44.534;18.700;2022-07-21T13:25:38;8.27;;;3.13;;
25511;SDS011;13414;44.534;18.700;2022-07-21T13:28:06;33.05;;;23.08;;
25511;SDS011;13414;44.534;18.700;2022-07-21T13:30:34;11.57;;;7.57;;
25511;SDS011;13414;44.534;18.700;2022-07-21T13:33:03;8.20;;;5.10;;
25511;SDS011;13414;44.534;18.700;2022-07-21T13:35:30;6.85;;;3.33;;
25511;SDS011;13414;44.534;18.700;2022-07-21T13:37:58;6.32;;;3.80;;
25511;SDS011;13414;44.534;18.700;2022-07-21T13:40:27;6.35;;;3.63;;
25511;SDS011;13414;44.534;18.700;2022-07-21T13:42:55;5.75;;;3.55;;
25511;SDS011;13414;44.534;18.700;2022-07-21T13:45:23;7.30;;;3.90;;
25511;SDS011;13414;44.534;18.700;2022-07-21T13:47:50;6.28;;;3.95;;
25511;SDS011;13414;44.534;18.700;2022-07-21T13:50:20;7.97;;;5.35;;
25511;SDS011;13414;44.534;18.700;2022-07-21T13:52:47;12.23;;;7.43;;
25511;SDS011;13414;44.534;18.700;2022-07-21T13:55:15;7.25;;;5.80;;
25511;SDS011;13414;44.534;18.700;2022-07-21T13:57:43;7.47;;;4.53;;
25511;SDS011;13414;44.534;18.700;2022-07-21T14:00:10;9.05;;;4.30;;
25511;SDS011;13414;44.534;18.700;2022-07-21T14:02:38;7.60;;;4.15;;
25511;SDS011;13414;44.534;18.700;2022-07-21T14:05:08;7.85;;;3.55;;
25511;SDS011;13414;44.534;18.700;2022-07-21T14:07:37;5.90;;;4.38;;
25511;SDS011;13414;44.534;18.700;2022-07-21T14:10:05;10.88;;;3.85;;
25511;SDS011;13414;44.534;18.700;2022-07-21T14:12:34;5.28;;;3.50;;
25511;SDS011;13414;44.534;18.700;2022-07-21T14:15:01;7.05;;;3.63;;
25511;SDS011;13414;44.534;18.700;2022-07-21T14:17:29;10.70;;;3.72;;
25511;SDS011;13414;44.534;18.700;2022-07-21T14:19:57;8.93;;;4.13;;
25511;SDS011;13414;44.534;18.700;2022-07-21T14:22:24;9.00;;;3.90;;
25511;SDS011;13414;44.534;18.700;2022-07-21T14:24:53;6.88;;;3.85;;
25511;SDS011;13414;44.534;18.700;2022-07-21T14:27:38;8.15;;;3.95;;
25511;SDS011;13414;44.534;18.700;2022-07-21T14:30:06;6.22;;;3.63;;
25511;SDS011;13414;44.534;18.700;2022-07-21T14:32:34;5.80;;;3.75;;
25511;SDS011;13414;44.534;18.700;2022-07-21T14:35:02;8.20;;;3.53;;
25511;SDS011;13414;44.534;18.700;2022-07-21T14:37:30;8.43;;;3.50;;
25511;SDS011;13414;44.534;18.700;2022-07-21T14:39:59;9.93;;;3.67;;
25511;SDS011;13414;44.534;18.700;2022-07-21T14:42:27;8.00;;;4.07;;
25511;SDS011;13414;44.534;18.700;2022-07-21T14:44:54;7.78;;;4.10;;
25511;SDS011;13414;44.534;18.700;2022-07-21T14:47:23;7.15;;;3.97;;
25511;SDS011;13414;44.534;18.700;2022-07-21T14:49:51;5.90;;;3.95;;
25511;SDS011;13414;44.534;18.700;2022-07-21T14:52:19;9.30;;;3.97;;
25511;SDS011;13414;44.534;18.700;2022-07-21T14:54:46;8.55;;;4.00;;
25511;SDS011;13414;44.534;18.700;2022-07-21T14:57:15;11.68;;;4.45;;
25511;SDS011;13414;44.534;18.700;2022-07-21T14:59:43;8.38;;;4.13;;
25511;SDS011;13414;44.534;18.700;2022-07-21T15:02:11;12.18;;;4.30;;
25511;SDS011;13414;44.534;18.700;2022-07-21T15:04:38;7.18;;;3.80;;
25511;SDS011;13414;44.534;18.700;2022-07-21T15:07:06;8.93;;;3.85;;
25511;SDS011;13414;44.534;18.700;2022-07-21T15:09:33;9.50;;;4.32;;
25511;SDS011;13414;44.534;18.700;2022-07-21T15:12:01;8.20;;;3.88;;
25511;SDS011;13414;44.534;18.700;2022-07-21T15:14:30;5.95;;;3.95;;
25511;SDS011;13414;44.534;18.700;2022-07-21T15:16:58;8.70;;;3.67;;
25511;SDS011;13414;44.534;18.700;2022-07-21T15:19:26;6.30;;;4.20;;
25511;SDS011;13414;44.534;18.700;2022-07-21T15:21:53;8.25;;;3.47;;
25511;SDS011;13414;44.534;18.700;2022-07-21T15:24:21;10.38;;;4.15;;
25511;SDS011;13414;44.534;18.700;2022-07-21T15:26:49;7.78;;;4.35;;
25511;SDS011;13414;44.534;18.700;2022-07-21T15:29:16;6.38;;;3.85;;
25511;SDS011;13414;44.534;18.700;2022-07-21T15:31:46;14.30;;;3.90;;
25511;SDS011;13414;44.534;18.700;2022-07-21T15:34:13;5.32;;;3.50;;
25511;SDS011;13414;44.534;18.700;2022-07-21T15:36:41;7.93;;;3.35;;
25511;SDS011;13414;44.534;18.700;2022-07-21T15:39:10;9.38;;;4.10;;
25511;SDS011;13414;44.534;18.700;2022-07-21T15:41:39;8.57;;;3.67;;
25511;SDS011;13414;44.534;18.700;2022-07-21T15:44:06;11.45;;;4.15;;
25511;SDS011;13414;44.534;18.700;2022-07-21T15:46:34;7.20;;;3.70;;
25511;SDS011;13414;44.534;18.700;2022-07-21T15:49:08;9.43;;;3.75;;
25511;SDS011;13414;44.534;18.700;2022-07-21T15:51:35;8.32;;;3.60;;
25511;SDS011;13414;44.534;18.700;2022-07-21T15:54:03;7.88;;;3.80;;
25511;SDS011;13414;44.534;18.700;2022-07-21T15:56:30;5.78;;;3.45;;
25511;SDS011;13414;44.534;18.700;2022-07-21T15:58:58;10.68;;;4.22;;
25511;SDS011;13414;44.534;18.700;2022-07-21T16:01:43;6.07;;;3.40;;
25511;SDS011;13414;44.534;18.700;2022-07-21T16:04:12;7.70;;;3.90;;
25511;SDS011;13414;44.534;18.700;2022-07-21T16:06:40;6.15;;;3.30;;
25511;SDS011;13414;44.534;18.700;2022-07-21T16:09:07;10.85;;;3.53;;
25511;SDS011;13414;44.534;18.700;2022-07-21T16:11:35;9.70;;;3.20;;
25511;SDS011;13414;44.534;18.700;2022-07-21T16:14:04;9.45;;;3.50;;
25511;SDS011;13414;44.534;18.700;2022-07-21T16:16:32;5.32;;;3.22;;
25511;SDS011;13414;44.534;18.700;2022-07-21T16:18:59;8.10;;;3.33;;
25511;SDS011;13414;44.534;18.700;2022-07-21T16:21:29;11.05;;;3.90;;
25511;SDS011;13414;44.534;18.700;2022-07-21T16:23:57;7.93;;;3.50;;
25511;SDS011;13414;44.534;18.700;2022-07-21T16:26:24;6.57;;;3.40;;
25511;SDS011;13414;44.534;18.700;2022-07-21T16:28:52;10.68;;;4.38;;
25511;SDS011;13414;44.534;18.700;2022-07-21T16:31:20;5.80;;;3.28;;
25511;SDS011;13414;44.534;18.700;2022-07-21T16:33:47;6.60;;;3.30;;
25511;SDS011;13414;44.534;18.700;2022-07-21T16:36:15;8.05;;;3.47;;